createdAt,value
2016-08-06T00:00:54.229Z,0
2016-08-06T00:01:54.275Z,0
2016-08-06T00:02:54.218Z,0
2016-08-06T00:03:54.231Z,0
2016-08-06T00:04:54.226Z,0
2016-08-06T00:05:54.225Z,0
2016-08-06T00:06:54.219Z,0
2016-08-06T00:07:54.227Z,0
2016-08-06T00:08:54.218Z,0
2016-08-06T00:09:54.207Z,0
2016-08-06T00:10:54.908Z,0
2016-08-06T00:11:54.210Z,0
2016-08-06T00:12:54.217Z,0
2016-08-06T00:13:54.210Z,0
2016-08-06T00:14:54.903Z,0
2016-08-06T00:15:54.198Z,0
2016-08-06T00:16:54.195Z,0
2016-08-06T00:17:55.919Z,0
2016-08-06T00:18:54.893Z,0
2016-08-06T00:19:54.206Z,0
2016-08-06T00:20:54.189Z,0
2016-08-06T00:21:54.198Z,0
2016-08-06T00:22:54.184Z,0
2016-08-06T00:23:54.174Z,0
2016-08-06T00:24:54.180Z,0
2016-08-06T00:25:56.430Z,0
2016-08-06T00:26:54.579Z,0
2016-08-06T00:28:09.491Z,0
2016-08-06T00:29:09.591Z,0
2016-08-06T00:29:54.220Z,0
2016-08-06T00:30:54.318Z,0
2016-08-06T00:31:54.163Z,0
2016-08-06T00:32:54.160Z,0
2016-08-06T00:33:54.159Z,0
2016-08-06T00:35:09.418Z,0
2016-08-06T00:35:56.099Z,0
2016-08-06T00:36:54.556Z,0
2016-08-06T00:38:09.567Z,0
2016-08-06T00:38:54.601Z,0
2016-08-06T00:39:55.011Z,0
2016-08-06T00:40:54.392Z,0
2016-08-06T00:41:54.144Z,0
2016-08-06T00:42:54.149Z,0
2016-08-06T00:43:54.138Z,0
2016-08-06T00:44:55.519Z,0
2016-08-06T00:45:56.250Z,0
2016-08-06T00:46:56.997Z,0
2016-08-06T00:47:55.851Z,0
2016-08-06T00:48:54.644Z,0
2016-08-06T00:49:55.250Z,0
2016-08-06T00:50:54.723Z,0
2016-08-06T00:51:54.125Z,0
2016-08-06T00:52:54.109Z,0
2016-08-06T00:53:54.105Z,0
2016-08-06T00:54:56.428Z,0
2016-08-06T00:56:56.662Z,0
2016-08-06T00:57:55.993Z,0
2016-08-06T00:58:54.922Z,0
2016-08-06T00:59:54.862Z,0
2016-08-06T01:00:54.430Z,0
2016-08-06T01:01:54.130Z,0
2016-08-06T01:02:54.092Z,0
2016-08-06T01:03:54.094Z,0
2016-08-06T01:04:54.082Z,0
2016-08-06T01:05:54.084Z,0
2016-08-06T01:06:54.072Z,0
2016-08-06T01:07:54.060Z,0
2016-08-06T01:08:54.072Z,0
2016-08-06T01:09:54.083Z,0
2016-08-06T01:10:54.075Z,0
2016-08-06T01:11:54.065Z,0
2016-08-06T01:12:54.058Z,0
2016-08-06T01:13:54.058Z,0
2016-08-06T01:14:54.047Z,0
2016-08-06T01:16:54.248Z,0
2016-08-06T01:17:54.047Z,0
2016-08-06T01:18:54.037Z,0
2016-08-06T01:19:54.042Z,0
2016-08-06T01:20:54.037Z,0
2016-08-06T01:21:54.026Z,0
2016-08-06T01:22:54.024Z,0
2016-08-06T01:23:54.016Z,0
2016-08-06T01:24:54.021Z,0
2016-08-06T01:25:54.023Z,0
2016-08-06T01:26:54.010Z,0
2016-08-06T01:27:54.018Z,0
2016-08-06T01:28:54.009Z,0
2016-08-06T01:29:54.005Z,0
2016-08-06T01:30:54.004Z,0
2016-08-06T01:31:53.998Z,0
2016-08-06T01:32:54.000Z,0
2016-08-06T01:33:53.992Z,0
2016-08-06T01:34:53.998Z,0
2016-08-06T01:35:53.980Z,0
2016-08-06T01:36:53.983Z,0
2016-08-06T01:37:53.981Z,0
2016-08-06T01:38:53.985Z,0
2016-08-06T01:39:53.987Z,0
2016-08-06T01:40:53.980Z,0
2016-08-06T01:41:53.969Z,0
2016-08-06T01:42:53.972Z,0
2016-08-06T01:43:54.959Z,0
2016-08-06T01:44:55.277Z,0
2016-08-06T01:47:09.144Z,0
2016-08-06T01:47:54.302Z,0
2016-08-06T01:48:54.302Z,0
2016-08-06T01:49:54.051Z,0
2016-08-06T01:50:53.941Z,0
2016-08-06T01:51:53.944Z,0
2016-08-06T01:52:54.833Z,0
2016-08-06T01:53:54.585Z,0
2016-08-06T01:56:08.842Z,0
2016-08-06T01:56:54.126Z,0
2016-08-06T01:57:54.570Z,0
2016-08-06T01:58:54.676Z,0
2016-08-06T01:59:54.115Z,0
2016-08-06T02:00:53.915Z,0
2016-08-06T02:01:53.904Z,0
2016-08-06T02:02:54.004Z,0
2016-08-06T02:03:55.432Z,0
2016-08-06T02:04:56.935Z,0
2016-08-06T02:05:56.285Z,0
2016-08-06T02:06:55.805Z,0
2016-08-06T02:07:54.597Z,0
2016-08-06T02:08:54.960Z,0
2016-08-06T02:09:54.640Z,0
2016-08-06T02:10:53.883Z,0
2016-08-06T02:11:53.878Z,0
2016-08-06T02:12:56.374Z,0
2016-08-06T02:14:56.467Z,0
2016-08-06T02:15:54.454Z,0
2016-08-06T02:16:56.101Z,0
2016-08-06T02:17:54.473Z,0
2016-08-06T02:18:54.612Z,0
2016-08-06T02:19:53.996Z,0
2016-08-06T02:20:53.850Z,0
2016-08-06T02:21:53.849Z,0
2016-08-06T02:22:53.848Z,0
2016-08-06T02:23:53.848Z,0
2016-08-06T02:24:53.839Z,0
2016-08-06T02:25:53.829Z,0
2016-08-06T02:26:53.835Z,0
2016-08-06T02:27:53.830Z,0
2016-08-06T02:28:53.824Z,0
2016-08-06T02:29:53.820Z,0
2016-08-06T02:30:53.820Z,0
2016-08-06T02:31:53.818Z,0
2016-08-06T02:32:53.835Z,0
2016-08-06T02:33:53.811Z,0
2016-08-06T02:34:53.805Z,0
2016-08-06T02:35:53.822Z,0
2016-08-06T02:36:53.816Z,0
2016-08-06T02:37:53.809Z,0
2016-08-06T02:38:53.817Z,0
2016-08-06T02:39:53.798Z,0
2016-08-06T02:40:53.790Z,0
2016-08-06T02:41:53.791Z,0
2016-08-06T02:42:53.793Z,0
2016-08-06T02:43:53.782Z,0
2016-08-06T02:44:53.781Z,0
2016-08-06T02:45:53.779Z,0
2016-08-06T02:46:53.769Z,0
2016-08-06T02:47:53.771Z,0
2016-08-06T02:48:53.776Z,0
2016-08-06T02:49:53.764Z,0
2016-08-06T02:50:53.769Z,0
2016-08-06T02:51:53.755Z,0
2016-08-06T02:52:53.755Z,0
2016-08-06T02:53:53.765Z,0
2016-08-06T02:54:53.758Z,0
2016-08-06T02:55:53.746Z,0
2016-08-06T02:56:53.748Z,0
2016-08-06T02:57:53.756Z,0
2016-08-06T02:58:53.752Z,0
2016-08-06T02:59:53.737Z,0
2016-08-06T03:00:53.746Z,0
2016-08-06T03:02:55.328Z,0
2016-08-06T03:03:54.734Z,0
2016-08-06T03:04:54.571Z,0
2016-08-06T03:05:54.820Z,0
2016-08-06T03:06:53.719Z,0
2016-08-06T03:07:54.120Z,0
2016-08-06T03:08:53.816Z,0
2016-08-06T03:09:53.712Z,0
2016-08-06T03:12:10.369Z,0
2016-08-06T03:13:09.566Z,0
2016-08-06T03:13:54.544Z,0
2016-08-06T03:15:53.745Z,0
2016-08-06T03:16:54.590Z,0
2016-08-06T03:17:53.683Z,0
2016-08-06T03:18:53.689Z,0
2016-08-06T03:19:53.679Z,0
2016-08-06T03:20:53.674Z,0
2016-08-06T03:21:56.186Z,0
2016-08-06T03:23:56.886Z,0
2016-08-06T03:24:55.173Z,5
2016-08-06T03:25:54.256Z,5
2016-08-06T03:26:53.652Z,5
2016-08-06T03:27:53.771Z,5
2016-08-06T03:28:53.708Z,5
2016-08-06T03:29:53.647Z,5
2016-08-06T03:30:53.646Z,5
2016-08-06T03:31:55.480Z,5
2016-08-06T03:32:56.405Z,10
2016-08-06T03:33:57.276Z,10
2016-08-06T03:34:56.147Z,10
2016-08-06T03:35:55.230Z,10
2016-08-06T03:36:53.626Z,10
2016-08-06T03:37:53.975Z,15
2016-08-06T03:38:53.617Z,15
2016-08-06T03:39:53.620Z,15
2016-08-06T03:40:53.608Z,15
2016-08-06T03:41:53.633Z,15
2016-08-06T03:42:53.608Z,15
2016-08-06T03:43:53.598Z,20
2016-08-06T03:44:53.604Z,20
2016-08-06T03:46:53.597Z,20
2016-08-06T03:47:53.587Z,25
2016-08-06T03:48:53.583Z,25
2016-08-06T03:49:53.583Z,25
2016-08-06T03:50:53.576Z,25
2016-08-06T03:51:53.585Z,30
2016-08-06T03:52:53.572Z,30
2016-08-06T03:53:53.579Z,30
2016-08-06T03:54:53.563Z,30
2016-08-06T03:55:53.552Z,35
2016-08-06T03:56:53.557Z,35
2016-08-06T03:57:53.552Z,35
2016-08-06T03:58:53.541Z,35
2016-08-06T03:59:53.552Z,40
2016-08-06T04:01:53.547Z,40
2016-08-06T04:02:53.579Z,45
2016-08-06T04:03:53.522Z,45
2016-08-06T04:04:53.527Z,45
2016-08-06T04:05:53.527Z,50
2016-08-06T04:06:53.533Z,50
2016-08-06T04:07:53.523Z,55
2016-08-06T04:08:53.506Z,55
2016-08-06T04:09:53.514Z,60
2016-08-06T04:10:53.501Z,65
2016-08-06T04:11:53.508Z,65
2016-08-06T04:12:53.497Z,70
2016-08-06T04:13:53.492Z,80
2016-08-06T04:14:53.505Z,90
2016-08-06T04:15:53.498Z,90
2016-08-06T04:16:53.480Z,90
2016-08-06T04:17:53.482Z,95
2016-08-06T04:18:53.480Z,100
2016-08-06T04:19:53.469Z,125
2016-08-06T04:20:53.674Z,145
2016-08-06T04:21:54.516Z,155
2016-08-06T04:22:54.260Z,155
2016-08-06T04:24:54.759Z,180
2016-08-06T04:25:53.453Z,190
2016-08-06T04:26:54.056Z,200
2016-08-06T04:27:53.442Z,205
2016-08-06T04:28:53.442Z,215
2016-08-06T04:29:55.186Z,230
2016-08-06T04:32:23.618Z,240
2016-08-06T04:32:54.485Z,245
2016-08-06T04:33:54.823Z,250
2016-08-06T04:34:53.950Z,255
2016-08-06T04:35:53.441Z,260
2016-08-06T04:36:53.411Z,260
2016-08-06T04:37:53.430Z,260
2016-08-06T04:38:53.428Z,270
2016-08-06T04:39:53.438Z,290
2016-08-06T04:41:55.057Z,295
2016-08-06T04:42:54.257Z,305
2016-08-06T04:43:54.195Z,305
2016-08-06T04:44:53.952Z,315
2016-08-06T04:45:53.437Z,335
2016-08-06T04:46:53.698Z,345
2016-08-06T04:47:53.671Z,335
2016-08-06T04:48:53.420Z,335
2016-08-06T04:50:56.463Z,365
2016-08-06T04:51:54.791Z,380
2016-08-06T04:52:56.290Z,410
2016-08-06T04:53:53.425Z,410
2016-08-06T04:54:53.429Z,410
2016-08-06T04:55:53.879Z,410
2016-08-06T04:56:53.442Z,420
2016-08-06T04:57:53.447Z,440
2016-08-06T04:58:53.459Z,430
2016-08-06T04:59:53.469Z,270
2016-08-06T05:00:53.460Z,295
2016-08-06T05:01:53.459Z,475
2016-08-06T05:02:53.462Z,505
2016-08-06T05:03:53.477Z,535
2016-08-06T05:04:53.505Z,540
2016-08-06T05:05:53.482Z,545
2016-08-06T05:06:53.487Z,550
2016-08-06T05:07:53.486Z,560
2016-08-06T05:08:53.504Z,600
2016-08-06T05:09:53.510Z,630
2016-08-06T05:10:53.502Z,620
2016-08-06T05:11:53.514Z,615
2016-08-06T05:12:54.228Z,640
2016-08-06T05:13:53.527Z,665
2016-08-06T05:14:53.547Z,670
2016-08-06T05:15:53.546Z,690
2016-08-06T05:16:53.548Z,720
2016-08-06T05:17:53.571Z,735
2016-08-06T05:18:53.558Z,740
2016-08-06T05:19:53.574Z,710
2016-08-06T05:20:53.578Z,545
2016-08-06T05:21:53.590Z,605
2016-08-06T05:22:53.606Z,515
2016-08-06T05:23:53.607Z,535
2016-08-06T05:24:53.613Z,770
2016-08-06T05:25:53.641Z,730
2016-08-06T05:26:53.634Z,610
2016-08-06T05:27:53.641Z,485
2016-08-06T05:28:53.651Z,640
2016-08-06T05:29:53.666Z,705
2016-08-06T05:30:53.662Z,705
2016-08-06T05:31:53.683Z,640
2016-08-06T05:32:53.685Z,605
2016-08-06T05:33:53.688Z,565
2016-08-06T05:34:53.699Z,605
2016-08-06T05:35:53.713Z,625
2016-08-06T05:36:54.407Z,410
2016-08-06T05:37:53.732Z,270
2016-08-06T05:38:54.694Z,270
2016-08-06T05:39:54.899Z,275
2016-08-06T05:41:24.387Z,275
2016-08-06T05:42:08.882Z,275
2016-08-06T05:42:53.762Z,275
2016-08-06T05:43:53.788Z,270
2016-08-06T05:44:53.788Z,260
2016-08-06T05:45:53.790Z,265
2016-08-06T05:46:53.809Z,275
2016-08-06T05:47:55.015Z,290
2016-08-06T05:48:55.427Z,320
2016-08-06T05:49:54.533Z,355
2016-08-06T05:51:08.753Z,390
2016-08-06T05:51:53.858Z,405
2016-08-06T05:52:54.105Z,420
2016-08-06T05:53:53.853Z,430
2016-08-06T05:54:53.875Z,420
2016-08-06T05:55:53.873Z,400
2016-08-06T05:56:53.869Z,390
2016-08-06T05:57:53.881Z,390
2016-08-06T05:59:56.699Z,360
2016-08-06T06:00:55.434Z,335
2016-08-06T06:01:54.317Z,320
2016-08-06T06:02:54.907Z,300
2016-08-06T06:03:54.925Z,295
2016-08-06T06:04:53.932Z,295
2016-08-06T06:05:53.925Z,325
2016-08-06T06:06:53.937Z,390
2016-08-06T06:07:57.034Z,480
2016-08-06T06:08:56.446Z,580
2016-08-06T06:09:57.148Z,825
2016-08-06T06:10:56.191Z,1165
2016-08-06T06:11:54.102Z,1540
2016-08-06T06:12:54.591Z,1540
2016-08-06T06:13:54.053Z,785
2016-08-06T06:14:53.964Z,465
2016-08-06T06:15:53.967Z,470
2016-08-06T06:16:53.979Z,415
2016-08-06T06:17:53.990Z,350
2016-08-06T06:18:53.980Z,315
2016-08-06T06:19:53.987Z,325
2016-08-06T06:20:53.998Z,335
2016-08-06T06:21:54.000Z,365
2016-08-06T06:22:54.018Z,410
2016-08-06T06:23:54.012Z,505
2016-08-06T06:24:54.024Z,630
2016-08-06T06:25:54.040Z,935
2016-08-06T06:26:54.036Z,1090
2016-08-06T06:27:54.725Z,1610
2016-08-06T06:28:54.037Z,1570
2016-08-06T06:29:54.046Z,1560
2016-08-06T06:30:54.046Z,1455
2016-08-06T06:31:54.746Z,1585
2016-08-06T06:32:54.058Z,1480
2016-08-06T06:33:54.064Z,1590
2016-08-06T06:34:54.767Z,1630
2016-08-06T06:35:54.090Z,1560
2016-08-06T06:36:54.081Z,1535
2016-08-06T06:37:54.099Z,1220
2016-08-06T06:38:54.099Z,810
2016-08-06T06:39:54.122Z,1835
2016-08-06T06:40:54.124Z,680
2016-08-06T06:41:54.142Z,655
2016-08-06T06:42:54.147Z,1720
2016-08-06T06:43:54.143Z,600
2016-08-06T06:44:54.170Z,710
2016-08-06T06:45:54.167Z,1245
2016-08-06T06:46:54.182Z,1135
2016-08-06T06:47:54.178Z,1960
2016-08-06T06:48:54.203Z,1790
2016-08-06T06:49:54.201Z,1070
2016-08-06T06:50:54.218Z,685
2016-08-06T06:51:54.227Z,1915
2016-08-06T06:52:54.240Z,2015
2016-08-06T06:53:54.260Z,1975
2016-08-06T06:54:54.262Z,1790
2016-08-06T06:55:54.270Z,1785
2016-08-06T06:56:55.334Z,530
2016-08-06T06:58:09.910Z,1935
2016-08-06T06:58:54.900Z,1895
2016-08-06T07:00:54.536Z,810
2016-08-06T07:01:55.340Z,2070
2016-08-06T07:02:55.098Z,1840
2016-08-06T07:03:54.352Z,1205
2016-08-06T07:04:54.361Z,910
2016-08-06T07:05:55.580Z,1545
2016-08-06T07:06:55.343Z,765
2016-08-06T07:07:55.352Z,1750
2016-08-06T07:08:55.405Z,660
2016-08-06T07:10:09.350Z,1230
2016-08-06T07:10:55.396Z,1995
2016-08-06T07:11:55.457Z,1410
2016-08-06T07:12:54.809Z,1320
2016-08-06T07:13:54.473Z,1970
2016-08-06T07:14:55.177Z,2010
2016-08-06T07:15:54.503Z,2190
2016-08-06T07:17:11.881Z,2065
2016-08-06T07:17:56.418Z,1895
2016-08-06T07:18:57.816Z,1850
2016-08-06T07:19:57.163Z,1810
2016-08-06T07:20:55.487Z,1605
2016-08-06T07:21:56.327Z,2165
2016-08-06T07:22:54.605Z,1640
2016-08-06T07:23:55.034Z,1185
2016-08-06T07:24:54.626Z,950
2016-08-06T07:25:57.557Z,830
2016-08-06T07:27:56.054Z,715
2016-08-06T07:28:56.100Z,740
2016-08-06T07:29:54.842Z,740
2016-08-06T07:30:56.082Z,765
2016-08-06T07:32:54.731Z,805
2016-08-06T07:33:54.756Z,835
2016-08-06T07:34:54.759Z,870
2016-08-06T07:35:54.776Z,1010
2016-08-06T07:36:54.775Z,1110
2016-08-06T07:37:54.794Z,1235
2016-08-06T07:38:54.809Z,1155
2016-08-06T07:39:54.818Z,1245
2016-08-06T07:40:54.821Z,1075
2016-08-06T07:41:54.842Z,1070
2016-08-06T07:42:54.845Z,1035
2016-08-06T07:43:54.853Z,1300
2016-08-06T07:44:54.869Z,1285
2016-08-06T07:45:54.890Z,985
2016-08-06T07:47:54.905Z,885
2016-08-06T07:48:54.929Z,940
2016-08-06T07:49:54.926Z,935
2016-08-06T07:50:54.949Z,975
2016-08-06T07:51:54.954Z,940
2016-08-06T07:52:54.955Z,975
2016-08-06T07:53:54.967Z,980
2016-08-06T07:54:54.972Z,1050
2016-08-06T07:55:54.987Z,1035
2016-08-06T07:56:55.006Z,935
2016-08-06T07:57:55.008Z,910
2016-08-06T07:58:55.015Z,955
2016-08-06T07:59:55.729Z,1055
2016-08-06T08:00:55.041Z,1300
2016-08-06T08:02:55.065Z,1160
2016-08-06T08:03:55.071Z,1495
2016-08-06T08:04:55.075Z,2185
2016-08-06T08:05:55.094Z,1970
2016-08-06T08:06:55.099Z,1660
2016-08-06T08:07:55.110Z,1430
2016-08-06T08:08:55.113Z,1270
2016-08-06T08:09:55.124Z,1015
2016-08-06T08:10:55.142Z,955
2016-08-06T08:11:55.155Z,1255
2016-08-06T08:12:55.162Z,1880
2016-08-06T08:13:55.168Z,1560
2016-08-06T08:15:11.801Z,975
2016-08-06T08:15:56.046Z,905
2016-08-06T08:17:25.439Z,850
2016-08-06T08:17:55.760Z,850
2016-08-06T08:18:55.924Z,990
2016-08-06T08:20:55.243Z,790
2016-08-06T08:21:55.249Z,810
2016-08-06T08:22:55.261Z,890
2016-08-06T08:25:10.841Z,875
2016-08-06T08:26:11.463Z,875
2016-08-06T08:27:11.023Z,850
2016-08-06T08:28:56.724Z,850
2016-08-06T08:29:55.331Z,845
2016-08-06T08:30:55.480Z,840
2016-08-06T08:31:55.340Z,850
2016-08-06T08:32:55.356Z,1145
2016-08-06T08:33:55.374Z,995
2016-08-06T08:34:57.801Z,850
2016-08-06T08:36:56.690Z,805
2016-08-06T08:37:57.155Z,755
2016-08-06T08:38:56.330Z,735
2016-08-06T08:39:55.417Z,740
2016-08-06T08:40:55.945Z,895
2016-08-06T08:41:55.910Z,775
2016-08-06T08:42:55.436Z,780
2016-08-06T08:43:55.443Z,785
2016-08-06T08:44:57.935Z,810
2016-08-06T08:45:57.425Z,905
2016-08-06T08:46:56.348Z,795
2016-08-06T08:47:56.061Z,785
2016-08-06T08:48:55.499Z,775
2016-08-06T08:49:56.535Z,765
2016-08-06T08:50:55.512Z,750
2016-08-06T08:51:55.524Z,740
2016-08-06T08:52:55.520Z,750
2016-08-06T08:53:55.532Z,775
2016-08-06T08:54:55.541Z,810
2016-08-06T08:55:55.542Z,850
2016-08-06T08:56:55.549Z,910
2016-08-06T08:57:55.565Z,920
2016-08-06T08:58:55.569Z,920
2016-08-06T08:59:55.572Z,930
2016-08-06T09:00:55.580Z,945
2016-08-06T09:01:55.593Z,915
2016-08-06T09:02:55.699Z,895
2016-08-06T09:03:55.613Z,885
2016-08-06T09:04:55.617Z,880
2016-08-06T09:05:55.626Z,875
2016-08-06T09:06:55.636Z,865
2016-08-06T09:07:55.634Z,860
2016-08-06T09:08:55.651Z,850
2016-08-06T09:09:55.649Z,845
2016-08-06T09:10:55.661Z,850
2016-08-06T09:11:55.666Z,865
2016-08-06T09:12:55.685Z,850
2016-08-06T09:13:55.682Z,825
2016-08-06T09:14:55.686Z,810
2016-08-06T09:15:55.705Z,785
2016-08-06T09:16:55.709Z,750
2016-08-06T09:17:56.444Z,720
2016-08-06T09:18:55.731Z,710
2016-08-06T09:19:55.738Z,720
2016-08-06T09:20:55.748Z,740
2016-08-06T09:21:55.750Z,770
2016-08-06T09:22:55.752Z,815
2016-08-06T09:23:55.757Z,900
2016-08-06T09:24:55.786Z,915
2016-08-06T09:25:55.778Z,840
2016-08-06T09:26:55.785Z,790
2016-08-06T09:27:55.792Z,840
2016-08-06T09:28:55.788Z,865
2016-08-06T09:29:55.832Z,875
2016-08-06T09:30:55.808Z,870
2016-08-06T09:31:55.816Z,860
2016-08-06T09:32:55.825Z,855
2016-08-06T09:34:57.743Z,810
2016-08-06T09:36:11.668Z,795
2016-08-06T09:36:56.018Z,800
2016-08-06T09:37:55.864Z,820
2016-08-06T09:38:56.668Z,820
2016-08-06T09:39:55.871Z,835
2016-08-06T09:40:55.889Z,850
2016-08-06T09:41:55.902Z,865
2016-08-06T09:42:58.110Z,845
2016-08-06T09:44:26.497Z,805
2016-08-06T09:45:11.388Z,785
2016-08-06T09:46:11.043Z,755
2016-08-06T09:46:55.943Z,735
2016-08-06T09:47:55.943Z,725
2016-08-06T09:48:56.341Z,740
2016-08-06T09:49:55.957Z,745
2016-08-06T09:50:55.966Z,730
2016-08-06T09:51:55.961Z,725
2016-08-06T09:52:55.981Z,725
2016-08-06T09:54:57.822Z,760
2016-08-06T09:55:57.198Z,755
2016-08-06T09:56:57.262Z,745
2016-08-06T09:57:57.106Z,755
2016-08-06T09:58:56.369Z,775
2016-08-06T09:59:56.043Z,760
2016-08-06T10:00:56.032Z,750
2016-08-06T10:01:56.055Z,745
2016-08-06T10:02:57.956Z,765
2016-08-06T10:04:00.177Z,790
2016-08-06T10:04:58.510Z,815
2016-08-06T10:05:56.913Z,845
2016-08-06T10:06:57.126Z,865
2016-08-06T10:07:56.708Z,885
2016-08-06T10:08:56.102Z,905
2016-08-06T10:09:56.111Z,910
2016-08-06T10:10:56.118Z,915
2016-08-06T10:11:56.121Z,915
2016-08-06T10:12:56.146Z,935
2016-08-06T10:13:56.141Z,960
2016-08-06T10:14:56.153Z,995
2016-08-06T10:15:56.161Z,990
2016-08-06T10:16:56.168Z,920
2016-08-06T10:17:56.171Z,870
2016-08-06T10:18:56.175Z,780
2016-08-06T10:19:56.182Z,705
2016-08-06T10:20:56.201Z,650
2016-08-06T10:21:56.214Z,660
2016-08-06T10:22:56.207Z,725
2016-08-06T10:23:56.216Z,775
2016-08-06T10:24:56.223Z,780
2016-08-06T10:25:56.233Z,795
2016-08-06T10:26:56.238Z,815
2016-08-06T10:27:56.248Z,810
2016-08-06T10:28:56.259Z,790
2016-08-06T10:29:56.261Z,770
2016-08-06T10:30:56.275Z,725
2016-08-06T10:31:56.287Z,725
2016-08-06T10:32:56.296Z,780
2016-08-06T10:33:57.009Z,810
2016-08-06T10:34:56.305Z,795
2016-08-06T10:35:56.310Z,780
2016-08-06T10:36:56.321Z,790
2016-08-06T10:37:56.325Z,815
2016-08-06T10:38:56.337Z,840
2016-08-06T10:39:56.336Z,845
2016-08-06T10:40:57.055Z,800
2016-08-06T10:41:56.351Z,785
2016-08-06T10:42:56.356Z,800
2016-08-06T10:43:56.374Z,830
2016-08-06T10:44:56.586Z,870
2016-08-06T10:45:56.399Z,850
2016-08-06T10:46:56.394Z,860
2016-08-06T10:47:56.404Z,865
2016-08-06T10:48:56.410Z,880
2016-08-06T10:49:56.419Z,900
2016-08-06T10:50:56.431Z,895
2016-08-06T10:52:12.449Z,875
2016-08-06T10:53:27.219Z,855
2016-08-06T10:54:13.109Z,850
2016-08-06T10:54:57.406Z,850
2016-08-06T10:55:57.848Z,845
2016-08-06T10:56:57.616Z,855
2016-08-06T10:57:56.477Z,845
2016-08-06T10:58:57.183Z,830
2016-08-06T10:59:56.496Z,815
2016-08-06T11:02:12.271Z,770
2016-08-06T11:03:12.381Z,735
2016-08-06T11:03:57.229Z,725
2016-08-06T11:04:58.034Z,715
2016-08-06T11:05:56.540Z,700
2016-08-06T11:06:57.299Z,685
2016-08-06T11:07:56.551Z,670
2016-08-06T11:08:56.559Z,675
2016-08-06T11:09:56.563Z,690
2016-08-06T11:10:56.577Z,740
2016-08-06T11:11:59.570Z,660
2016-08-06T11:12:58.400Z,675
2016-08-06T11:13:58.510Z,655
2016-08-06T11:14:57.321Z,635
2016-08-06T11:15:57.264Z,675
2016-08-06T11:16:56.669Z,690
2016-08-06T11:17:56.623Z,685
2016-08-06T11:18:56.641Z,660
2016-08-06T11:19:56.650Z,710
2016-08-06T11:22:00.575Z,630
2016-08-06T11:22:57.587Z,580
2016-08-06T11:23:58.545Z,560
2016-08-06T11:24:57.165Z,570
2016-08-06T11:25:56.908Z,590
2016-08-06T11:26:56.696Z,670
2016-08-06T11:27:56.716Z,670
2016-08-06T11:28:56.716Z,670
2016-08-06T11:29:56.730Z,595
2016-08-06T11:30:56.725Z,610
2016-08-06T11:31:56.758Z,680
2016-08-06T11:33:57.445Z,635
2016-08-06T11:34:56.768Z,575
2016-08-06T11:35:56.774Z,530
2016-08-06T11:36:56.776Z,505
2016-08-06T11:37:56.785Z,530
2016-08-06T11:38:57.494Z,665
2016-08-06T11:39:56.797Z,650
2016-08-06T11:40:56.799Z,685
2016-08-06T11:41:56.812Z,725
2016-08-06T11:42:56.825Z,695
2016-08-06T11:43:57.521Z,675
2016-08-06T11:44:56.834Z,665
2016-08-06T11:45:56.853Z,650
2016-08-06T11:46:56.848Z,630
2016-08-06T11:48:56.867Z,560
2016-08-06T11:49:56.884Z,555
2016-08-06T11:50:56.890Z,580
2016-08-06T11:51:56.880Z,605
2016-08-06T11:52:56.891Z,645
2016-08-06T11:53:56.904Z,685
2016-08-06T11:54:56.925Z,705
2016-08-06T11:55:56.913Z,730
2016-08-06T11:56:56.913Z,765
2016-08-06T11:57:56.946Z,790
2016-08-06T11:58:56.935Z,795
2016-08-06T11:59:56.938Z,790
2016-08-06T12:00:57.650Z,810
2016-08-06T12:01:56.954Z,830
2016-08-06T12:03:56.972Z,795
2016-08-06T12:04:56.974Z,820
2016-08-06T12:05:56.995Z,805
2016-08-06T12:06:57.005Z,795
2016-08-06T12:07:57.013Z,770
2016-08-06T12:08:57.007Z,720
2016-08-06T12:09:58.512Z,660
2016-08-06T12:10:58.129Z,630
2016-08-06T12:13:12.650Z,605
2016-08-06T12:14:57.748Z,650
2016-08-06T12:15:57.468Z,605
2016-08-06T12:16:57.056Z,505
2016-08-06T12:17:57.080Z,420
2016-08-06T12:19:13.099Z,365
2016-08-06T12:19:58.548Z,350
2016-08-06T12:21:27.172Z,330
2016-08-06T12:23:57.118Z,350
2016-08-06T12:24:57.112Z,365
2016-08-06T12:25:57.574Z,405
2016-08-06T12:26:57.130Z,435
2016-08-06T12:27:57.142Z,475
2016-08-06T12:28:57.138Z,515
2016-08-06T12:29:59.100Z,570
2016-08-06T12:30:58.738Z,605
2016-08-06T12:31:59.639Z,640
2016-08-06T12:33:59.735Z,690
2016-08-06T12:34:57.482Z,720
2016-08-06T12:35:57.200Z,725
2016-08-06T12:36:57.202Z,725
2016-08-06T12:37:57.207Z,710
2016-08-06T12:40:58.714Z,660
2016-08-06T12:41:58.371Z,665
2016-08-06T12:42:59.737Z,670
2016-08-06T12:43:57.761Z,645
2016-08-06T12:44:57.540Z,655
2016-08-06T12:45:57.261Z,675
2016-08-06T12:46:57.371Z,670
2016-08-06T12:47:57.275Z,670
2016-08-06T12:48:57.970Z,655
2016-08-06T12:49:57.290Z,655
2016-08-06T12:50:57.305Z,650
2016-08-06T12:51:57.294Z,640
2016-08-06T12:52:57.310Z,655
2016-08-06T12:53:57.318Z,670
2016-08-06T12:54:57.317Z,670
2016-08-06T12:55:57.326Z,655
2016-08-06T12:56:57.338Z,640
2016-08-06T12:57:57.348Z,635
2016-08-06T12:58:57.340Z,625
2016-08-06T12:59:57.351Z,595
2016-08-06T13:00:57.363Z,565
2016-08-06T13:01:57.376Z,530
2016-08-06T13:02:57.577Z,500
2016-08-06T13:03:57.387Z,470
2016-08-06T13:04:57.392Z,440
2016-08-06T13:05:57.388Z,430
2016-08-06T13:06:57.406Z,425
2016-08-06T13:07:57.420Z,415
2016-08-06T13:08:57.422Z,410
2016-08-06T13:09:57.426Z,450
2016-08-06T13:10:57.434Z,480
2016-08-06T13:11:57.434Z,520
2016-08-06T13:12:57.444Z,515
2016-08-06T13:13:57.453Z,475
2016-08-06T13:14:57.451Z,475
2016-08-06T13:15:57.474Z,460
2016-08-06T13:16:57.477Z,425
2016-08-06T13:17:57.473Z,380
2016-08-06T13:18:57.485Z,325
2016-08-06T13:19:57.497Z,270
2016-08-06T13:20:57.491Z,250
2016-08-06T13:21:57.503Z,250
2016-08-06T13:22:57.515Z,240
2016-08-06T13:23:58.286Z,235
2016-08-06T13:24:57.520Z,225
2016-08-06T13:25:57.523Z,235
2016-08-06T13:26:57.541Z,240
2016-08-06T13:28:27.375Z,230
2016-08-06T13:29:13.170Z,225
2016-08-06T13:29:58.494Z,225
2016-08-06T13:31:57.618Z,235
2016-08-06T13:32:57.915Z,285
2016-08-06T13:33:58.664Z,255
2016-08-06T13:34:58.521Z,230
2016-08-06T13:35:57.592Z,275
2016-08-06T13:38:58.303Z,270
2016-08-06T13:39:58.248Z,275
2016-08-06T13:40:57.604Z,270
2016-08-06T13:41:59.117Z,240
2016-08-06T13:42:57.620Z,225
2016-08-06T13:43:57.617Z,245
2016-08-06T13:44:57.614Z,265
2016-08-06T13:45:57.627Z,250
2016-08-06T13:46:57.638Z,235
2016-08-06T13:48:01.296Z,230
2016-08-06T13:48:59.163Z,245
2016-08-06T13:50:00.756Z,265
2016-08-06T13:51:00.619Z,315
2016-08-06T13:51:59.195Z,320
2016-08-06T13:52:57.664Z,260
2016-08-06T13:53:57.817Z,235
2016-08-06T13:54:57.655Z,245
2016-08-06T13:55:57.675Z,240
2016-08-06T13:56:59.914Z,250
2016-08-06T13:58:00.837Z,295
2016-08-06T13:58:59.188Z,325
2016-08-06T13:59:59.485Z,285
2016-08-06T14:00:58.536Z,255
2016-08-06T14:01:57.679Z,250
2016-08-06T14:02:57.893Z,250
2016-08-06T14:03:57.795Z,245
2016-08-06T14:04:57.701Z,250
2016-08-06T14:05:57.697Z,245
2016-08-06T14:06:57.703Z,240
2016-08-06T14:07:57.709Z,235
2016-08-06T14:08:57.709Z,230
2016-08-06T14:09:57.712Z,235
2016-08-06T14:10:57.730Z,245
2016-08-06T14:11:57.715Z,265
2016-08-06T14:12:57.715Z,330
2016-08-06T14:13:57.726Z,375
2016-08-06T14:14:57.737Z,390
2016-08-06T14:15:57.735Z,385
2016-08-06T14:16:57.741Z,385
2016-08-06T14:17:57.748Z,380
2016-08-06T14:18:57.749Z,395
2016-08-06T14:19:57.744Z,405
2016-08-06T14:20:57.761Z,405
2016-08-06T14:21:57.746Z,415
2016-08-06T14:22:57.761Z,410
2016-08-06T14:23:57.766Z,420
2016-08-06T14:24:57.763Z,440
2016-08-06T14:25:57.765Z,465
2016-08-06T14:26:57.767Z,460
2016-08-06T14:27:57.777Z,425
2016-08-06T14:28:57.773Z,385
2016-08-06T14:29:57.781Z,370
2016-08-06T14:30:57.805Z,385
2016-08-06T14:31:57.780Z,455
2016-08-06T14:32:57.792Z,505
2016-08-06T14:33:57.791Z,465
2016-08-06T14:34:57.801Z,435
2016-08-06T14:35:57.807Z,445
2016-08-06T14:36:57.827Z,420
2016-08-06T14:37:57.816Z,375
2016-08-06T14:38:57.817Z,340
2016-08-06T14:39:57.828Z,320
2016-08-06T14:40:57.845Z,325